sensor_id;sensor_type;location;lat;lon;timestamp;P1;durP1;ratioP1;P2;durP2;ratioP2
1054;SDS011;516;51.482;7.120;2024-01-27T00:00:26;5.50;;;3.90;;
1054;SDS011;516;51.482;7.120;2024-01-27T00:02:51;8.30;;;3.30;;
1054;SDS011;516;51.482;7.120;2024-01-27T00:05:17;3.60;;;3.13;;
1054;SDS011;516;51.482;7.120;2024-01-27T00:07:43;5.70;;;4.70;;
1054;SDS011;516;51.482;7.120;2024-01-27T00:10:08;3.77;;;3.30;;
1054;SDS011;516;51.482;7.120;2024-01-27T00:12:34;3.90;;;3.43;;
1054;SDS011;516;51.482;7.120;2024-01-27T00:15:01;4.57;;;3.07;;
1054;SDS011;516;51.482;7.120;2024-01-27T00:17:27;4.30;;;3.90;;
1054;SDS011;516;51.482;7.120;2024-01-27T00:19:53;5.27;;;3.60;;
1054;SDS011;516;51.482;7.120;2024-01-27T00:22:19;5.30;;;3.47;;
1054;SDS011;516;51.482;7.120;2024-01-27T00:24:48;5.53;;;3.60;;
1054;SDS011;516;51.482;7.120;2024-01-27T00:27:14;5.40;;;3.40;;
1054;SDS011;516;51.482;7.120;2024-01-27T00:29:40;3.70;;;2.93;;
1054;SDS011;516;51.482;7.120;2024-01-27T00:32:05;3.90;;;3.50;;
1054;SDS011;516;51.482;7.120;2024-01-27T00:34:31;5.33;;;3.83;;
1054;SDS011;516;51.482;7.120;2024-01-27T00:36:56;5.17;;;3.40;;
1054;SDS011;516;51.482;7.120;2024-01-27T00:39:22;3.57;;;3.20;;
1054;SDS011;516;51.482;7.120;2024-01-27T00:41:48;3.60;;;3.23;;
1054;SDS011;516;51.482;7.120;2024-01-27T00:44:14;3.60;;;3.30;;
1054;SDS011;516;51.482;7.120;2024-01-27T00:46:39;6.00;;;3.20;;
1054;SDS011;516;51.482;7.120;2024-01-27T00:49:05;4.30;;;3.40;;
1054;SDS011;516;51.482;7.120;2024-01-27T00:51:31;4.47;;;2.63;;
1054;SDS011;516;51.482;7.120;2024-01-27T00:53:57;3.50;;;3.00;;
1054;SDS011;516;51.482;7.120;2024-01-27T00:56:23;4.93;;;3.50;;
1054;SDS011;516;51.482;7.120;2024-01-27T00:58:48;5.03;;;2.90;;
1054;SDS011;516;51.482;7.120;2024-01-27T01:01:14;6.43;;;3.60;;
1054;SDS011;516;51.482;7.120;2024-01-27T01:03:40;4.73;;;2.93;;
1054;SDS011;516;51.482;7.120;2024-01-27T01:06:05;3.80;;;2.33;;
1054;SDS011;516;51.482;7.120;2024-01-27T01:08:31;5.80;;;3.23;;
1054;SDS011;516;51.482;7.120;2024-01-27T01:10:57;4.10;;;2.93;;
1054;SDS011;516;51.482;7.120;2024-01-27T01:13:23;5.80;;;3.17;;
1054;SDS011;516;51.482;7.120;2024-01-27T01:15:49;3.90;;;2.50;;
1054;SDS011;516;51.482;7.120;2024-01-27T01:18:15;3.80;;;3.20;;
1054;SDS011;516;51.482;7.120;2024-01-27T01:20:40;4.53;;;3.60;;
1054;SDS011;516;51.482;7.120;2024-01-27T01:23:06;3.80;;;2.60;;
1054;SDS011;516;51.482;7.120;2024-01-27T01:25:32;4.83;;;3.03;;
1054;SDS011;516;51.482;7.120;2024-01-27T01:27:58;3.40;;;2.50;;
1054;SDS011;516;51.482;7.120;2024-01-27T01:30:24;4.30;;;2.70;;
1054;SDS011;516;51.482;7.120;2024-01-27T01:32:49;4.77;;;3.40;;
1054;SDS011;516;51.482;7.120;2024-01-27T01:35:15;3.77;;;2.90;;
1054;SDS011;516;51.482;7.120;2024-01-27T01:37:41;4.80;;;3.33;;
1054;SDS011;516;51.482;7.120;2024-01-27T01:40:07;4.43;;;3.03;;
1054;SDS011;516;51.482;7.120;2024-01-27T01:42:33;5.33;;;3.37;;
1054;SDS011;516;51.482;7.120;2024-01-27T01:44:58;4.63;;;2.57;;
1054;SDS011;516;51.482;7.120;2024-01-27T01:47:24;3.90;;;3.13;;
1054;SDS011;516;51.482;7.120;2024-01-27T01:49:50;3.23;;;2.93;;
1054;SDS011;516;51.482;7.120;2024-01-27T01:52:17;4.03;;;2.50;;
1054;SDS011;516;51.482;7.120;2024-01-27T01:54:48;4.60;;;3.10;;
1054;SDS011;516;51.482;7.120;2024-01-27T01:57:15;5.40;;;2.97;;
1054;SDS011;516;51.482;7.120;2024-01-27T01:59:41;2.87;;;2.37;;
1054;SDS011;516;51.482;7.120;2024-01-27T02:02:08;4.40;;;3.00;;
1054;SDS011;516;51.482;7.120;2024-01-27T02:04:43;5.27;;;3.10;;
1054;SDS011;516;51.482;7.120;2024-01-27T02:07:11;4.10;;;2.93;;
1054;SDS011;516;51.482;7.120;2024-01-27T02:09:37;3.77;;;2.70;;
1054;SDS011;516;51.482;7.120;2024-01-27T02:12:03;5.30;;;2.53;;
1054;SDS011;516;51.482;7.120;2024-01-27T02:14:29;3.57;;;2.70;;
1054;SDS011;516;51.482;7.120;2024-01-27T02:16:55;2.90;;;2.47;;
1054;SDS011;516;51.482;7.120;2024-01-27T02:19:22;4.93;;;2.93;;
1054;SDS011;516;51.482;7.120;2024-01-27T02:21:48;4.30;;;3.03;;
1054;SDS011;516;51.482;7.120;2024-01-27T02:24:13;4.60;;;2.43;;
1054;SDS011;516;51.482;7.120;2024-01-27T02:26:39;4.17;;;2.90;;
1054;SDS011;516;51.482;7.120;2024-01-27T02:29:05;3.10;;;2.50;;
1054;SDS011;516;51.482;7.120;2024-01-27T02:31:31;4.70;;;3.03;;
1054;SDS011;516;51.482;7.120;2024-01-27T02:33:56;4.63;;;3.13;;
1054;SDS011;516;51.482;7.120;2024-01-27T02:36:22;5.03;;;2.97;;
1054;SDS011;516;51.482;7.120;2024-01-27T02:38:48;5.07;;;2.60;;
1054;SDS011;516;51.482;7.120;2024-01-27T02:41:13;3.80;;;2.80;;
1054;SDS011;516;51.482;7.120;2024-01-27T02:43:40;4.50;;;3.17;;
1054;SDS011;516;51.482;7.120;2024-01-27T02:46:09;3.10;;;2.33;;
1054;SDS011;516;51.482;7.120;2024-01-27T02:48:36;3.23;;;2.63;;
1054;SDS011;516;51.482;7.120;2024-01-27T02:51:05;3.50;;;2.97;;
1054;SDS011;516;51.482;7.120;2024-01-27T02:53:31;3.27;;;2.80;;
1054;SDS011;516;51.482;7.120;2024-01-27T02:55:56;2.50;;;2.30;;
1054;SDS011;516;51.482;7.120;2024-01-27T02:58:22;3.60;;;3.00;;
1054;SDS011;516;51.482;7.120;2024-01-27T03:00:47;5.70;;;2.87;;
1054;SDS011;516;51.482;7.120;2024-01-27T03:03:13;5.43;;;3.13;;
1054;SDS011;516;51.482;7.120;2024-01-27T03:05:40;4.20;;;2.80;;
1054;SDS011;516;51.482;7.120;2024-01-27T03:08:06;4.97;;;3.23;;
1054;SDS011;516;51.482;7.120;2024-01-27T03:10:32;6.60;;;2.40;;
1054;SDS011;516;51.482;7.120;2024-01-27T03:12:57;3.17;;;2.50;;
1054;SDS011;516;51.482;7.120;2024-01-27T03:15:23;3.93;;;2.50;;
1054;SDS011;516;51.482;7.120;2024-01-27T03:17:49;3.93;;;2.50;;
1054;SDS011;516;51.482;7.120;2024-01-27T03:20:15;4.80;;;2.90;;
1054;SDS011;516;51.482;7.120;2024-01-27T03:22:40;5.40;;;2.60;;
1054;SDS011;516;51.482;7.120;2024-01-27T03:25:07;4.13;;;2.87;;
1054;SDS011;516;51.482;7.120;2024-01-27T03:27:33;3.60;;;2.67;;
1054;SDS011;516;51.482;7.120;2024-01-27T03:30:00;4.10;;;2.80;;
1054;SDS011;516;51.482;7.120;2024-01-27T03:32:27;4.73;;;2.90;;
1054;SDS011;516;51.482;7.120;2024-01-27T03:34:52;5.07;;;3.23;;
1054;SDS011;516;51.482;7.120;2024-01-27T03:37:18;3.60;;;2.73;;
1054;SDS011;516;51.482;7.120;2024-01-27T03:39:46;3.10;;;2.23;;
1054;SDS011;516;51.482;7.120;2024-01-27T03:42:12;3.87;;;3.40;;
1054;SDS011;516;51.482;7.120;2024-01-27T03:44:37;3.80;;;2.50;;
1054;SDS011;516;51.482;7.120;2024-01-27T03:47:03;3.20;;;2.40;;
1054;SDS011;516;51.482;7.120;2024-01-27T03:49:28;4.63;;;3.30;;
1054;SDS011;516;51.482;7.120;2024-01-27T03:51:54;5.33;;;2.60;;
1054;SDS011;516;51.482;7.120;2024-01-27T03:54:20;2.83;;;2.20;;
1054;SDS011;516;51.482;7.120;2024-01-27T03:56:46;8.13;;;2.60;;
1054;SDS011;516;51.482;7.120;2024-01-27T03:59:12;6.47;;;2.73;;
1054;SDS011;516;51.482;7.120;2024-01-27T04:01:37;4.50;;;3.07;;
1054;SDS011;516;51.482;7.120;2024-01-27T04:04:03;5.00;;;2.40;;
1054;SDS011;516;51.482;7.120;2024-01-27T04:06:29;3.40;;;2.60;;
1054;SDS011;516;51.482;7.120;2024-01-27T04:09:00;4.63;;;2.77;;
1054;SDS011;516;51.482;7.120;2024-01-27T04:11:26;3.47;;;2.63;;
1054;SDS011;516;51.482;7.120;2024-01-27T04:13:51;2.47;;;2.27;;
1054;SDS011;516;51.482;7.120;2024-01-27T04:16:17;5.03;;;2.93;;
1054;SDS011;516;51.482;7.120;2024-01-27T04:18:43;3.60;;;2.57;;
1054;SDS011;516;51.482;7.120;2024-01-27T04:21:08;2.70;;;2.37;;
1054;SDS011;516;51.482;7.120;2024-01-27T04:23:34;6.20;;;3.20;;
1054;SDS011;516;51.482;7.120;2024-01-27T04:26:00;4.37;;;2.93;;
1054;SDS011;516;51.482;7.120;2024-01-27T04:28:26;3.03;;;2.50;;
1054;SDS011;516;51.482;7.120;2024-01-27T04:30:51;4.70;;;2.70;;
1054;SDS011;516;51.482;7.120;2024-01-27T04:33:17;3.80;;;2.33;;
1054;SDS011;516;51.482;7.120;2024-01-27T04:35:43;4.47;;;2.53;;
1054;SDS011;516;51.482;7.120;2024-01-27T04:38:09;3.27;;;2.60;;
1054;SDS011;516;51.482;7.120;2024-01-27T04:40:34;2.40;;;2.13;;
1054;SDS011;516;51.482;7.120;2024-01-27T04:43:03;3.30;;;2.60;;
1054;SDS011;516;51.482;7.120;2024-01-27T04:45:29;4.23;;;2.60;;
1054;SDS011;516;51.482;7.120;2024-01-27T04:47:55;2.70;;;2.20;;
1054;SDS011;516;51.482;7.120;2024-01-27T04:50:20;3.40;;;2.53;;
1054;SDS011;516;51.482;7.120;2024-01-27T04:52:46;2.50;;;2.30;;
1054;SDS011;516;51.482;7.120;2024-01-27T04:55:12;2.73;;;2.10;;
1054;SDS011;516;51.482;7.120;2024-01-27T04:57:38;4.63;;;2.53;;
1054;SDS011;516;51.482;7.120;2024-01-27T05:00:04;3.37;;;2.53;;
1054;SDS011;516;51.482;7.120;2024-01-27T05:02:32;3.17;;;1.90;;
1054;SDS011;516;51.482;7.120;2024-01-27T05:04:58;5.77;;;2.60;;
1054;SDS011;516;51.482;7.120;2024-01-27T05:07:24;3.40;;;2.90;;
1054;SDS011;516;51.482;7.120;2024-01-27T05:09:50;4.00;;;2.40;;
1054;SDS011;516;51.482;7.120;2024-01-27T05:12:15;5.33;;;3.30;;
1054;SDS011;516;51.482;7.120;2024-01-27T05:14:44;4.37;;;2.30;;
1054;SDS011;516;51.482;7.120;2024-01-27T05:17:10;3.47;;;2.47;;
1054;SDS011;516;51.482;7.120;2024-01-27T05:19:36;3.93;;;2.60;;
1054;SDS011;516;51.482;7.120;2024-01-27T05:22:02;3.17;;;2.80;;
1054;SDS011;516;51.482;7.120;2024-01-27T05:24:27;2.80;;;2.40;;
1054;SDS011;516;51.482;7.120;2024-01-27T05:26:53;4.20;;;2.47;;
1054;SDS011;516;51.482;7.120;2024-01-27T05:29:19;3.47;;;2.70;;
1054;SDS011;516;51.482;7.120;2024-01-27T05:31:45;4.70;;;2.60;;
1054;SDS011;516;51.482;7.120;2024-01-27T05:34:10;3.23;;;1.90;;
1054;SDS011;516;51.482;7.120;2024-01-27T05:36:36;3.30;;;2.47;;
1054;SDS011;516;51.482;7.120;2024-01-27T05:39:04;2.93;;;2.57;;
1054;SDS011;516;51.482;7.120;2024-01-27T05:41:30;4.27;;;2.50;;
1054;SDS011;516;51.482;7.120;2024-01-27T05:43:56;3.13;;;2.40;;
1054;SDS011;516;51.482;7.120;2024-01-27T05:46:23;5.27;;;2.33;;
1054;SDS011;516;51.482;7.120;2024-01-27T05:48:52;3.80;;;3.07;;
1054;SDS011;516;51.482;7.120;2024-01-27T05:51:19;2.83;;;2.40;;
1054;SDS011;516;51.482;7.120;2024-01-27T05:53:45;6.17;;;2.60;;
1054;SDS011;516;51.482;7.120;2024-01-27T05:56:11;3.30;;;2.27;;
1054;SDS011;516;51.482;7.120;2024-01-27T05:58:37;3.37;;;2.20;;
1054;SDS011;516;51.482;7.120;2024-01-27T06:01:03;4.20;;;2.80;;
1054;SDS011;516;51.482;7.120;2024-01-27T06:03:28;3.23;;;1.90;;
1054;SDS011;516;51.482;7.120;2024-01-27T06:05:54;2.03;;;1.57;;
1054;SDS011;516;51.482;7.120;2024-01-27T06:08:20;5.33;;;2.43;;
1054;SDS011;516;51.482;7.120;2024-01-27T06:10:46;4.13;;;3.00;;
1054;SDS011;516;51.482;7.120;2024-01-27T06:13:12;4.03;;;2.23;;
1054;SDS011;516;51.482;7.120;2024-01-27T06:15:37;4.17;;;1.70;;
1054;SDS011;516;51.482;7.120;2024-01-27T06:18:04;2.40;;;1.83;;
1054;SDS011;516;51.482;7.120;2024-01-27T06:20:30;4.60;;;2.17;;
1054;SDS011;516;51.482;7.120;2024-01-27T06:22:55;2.63;;;1.93;;
1054;SDS011;516;51.482;7.120;2024-01-27T06:25:21;4.27;;;2.40;;
1054;SDS011;516;51.482;7.120;2024-01-27T06:27:47;4.63;;;2.13;;
1054;SDS011;516;51.482;7.120;2024-01-27T06:30:13;3.20;;;2.50;;
1054;SDS011;516;51.482;7.120;2024-01-27T06:32:40;3.23;;;2.17;;
1054;SDS011;516;51.482;7.120;2024-01-27T06:35:06;2.80;;;1.93;;
1054;SDS011;516;51.482;7.120;2024-01-27T06:37:32;3.97;;;2.20;;
1054;SDS011;516;51.482;7.120;2024-01-27T06:39:58;3.70;;;2.50;;
1054;SDS011;516;51.482;7.120;2024-01-27T06:42:23;3.07;;;1.70;;
1054;SDS011;516;51.482;7.120;2024-01-27T06:44:49;4.17;;;2.20;;
1054;SDS011;516;51.482;7.120;2024-01-27T06:47:15;3.10;;;2.00;;
1054;SDS011;516;51.482;7.120;2024-01-27T06:49:40;3.27;;;2.37;;
1054;SDS011;516;51.482;7.120;2024-01-27T06:52:06;2.30;;;2.10;;
1054;SDS011;516;51.482;7.120;2024-01-27T06:54:32;3.57;;;2.70;;
1054;SDS011;516;51.482;7.120;2024-01-27T06:56:59;4.53;;;3.23;;
1054;SDS011;516;51.482;7.120;2024-01-27T06:59:25;5.50;;;1.80;;
1054;SDS011;516;51.482;7.120;2024-01-27T07:01:51;3.53;;;1.90;;
1054;SDS011;516;51.482;7.120;2024-01-27T07:04:17;3.70;;;2.40;;
1054;SDS011;516;51.482;7.120;2024-01-27T07:06:43;3.07;;;2.40;;
1054;SDS011;516;51.482;7.120;2024-01-27T07:09:09;2.50;;;1.83;;
1054;SDS011;516;51.482;7.120;2024-01-27T07:11:36;3.63;;;2.93;;
1054;SDS011;516;51.482;7.120;2024-01-27T07:14:02;3.47;;;2.10;;
1054;SDS011;516;51.482;7.120;2024-01-27T07:16:28;2.37;;;2.00;;
1054;SDS011;516;51.482;7.120;2024-01-27T07:18:54;4.20;;;2.33;;
1054;SDS011;516;51.482;7.120;2024-01-27T07:21:20;2.77;;;2.20;;
1054;SDS011;516;51.482;7.120;2024-01-27T07:23:46;4.20;;;2.90;;
1054;SDS011;516;51.482;7.120;2024-01-27T07:26:12;4.03;;;2.20;;
1054;SDS011;516;51.482;7.120;2024-01-27T07:28:38;7.60;;;3.03;;
1054;SDS011;516;51.482;7.120;2024-01-27T07:31:04;3.97;;;2.60;;
1054;SDS011;516;51.482;7.120;2024-01-27T07:33:30;4.30;;;2.30;;
1054;SDS011;516;51.482;7.120;2024-01-27T07:35:56;2.13;;;1.77;;
1054;SDS011;516;51.482;7.120;2024-01-27T07:38:22;6.93;;;2.83;;
1054;SDS011;516;51.482;7.120;2024-01-27T07:40:48;6.47;;;2.70;;
1054;SDS011;516;51.482;7.120;2024-01-27T07:43:13;8.43;;;3.10;;
1054;SDS011;516;51.482;7.120;2024-01-27T07:45:39;20.50;;;4.50;;
1054;SDS011;516;51.482;7.120;2024-01-27T07:48:04;10.07;;;3.30;;
1054;SDS011;516;51.482;7.120;2024-01-27T07:50:31;10.23;;;3.60;;
1054;SDS011;516;51.482;7.120;2024-01-27T07:52:57;8.93;;;4.10;;
1054;SDS011;516;51.482;7.120;2024-01-27T07:55:23;15.50;;;4.30;;
1054;SDS011;516;51.482;7.120;2024-01-27T07:57:48;9.93;;;3.43;;
1054;SDS011;516;51.482;7.120;2024-01-27T08:00:14;16.97;;;3.40;;
1054;SDS011;516;51.482;7.120;2024-01-27T08:02:40;6.17;;;3.07;;
1054;SDS011;516;51.482;7.120;2024-01-27T08:05:05;16.53;;;4.57;;
1054;SDS011;516;51.482;7.120;2024-01-27T08:07:32;9.53;;;4.10;;
1054;SDS011;516;51.482;7.120;2024-01-27T08:09:58;9.47;;;3.30;;
1054;SDS011;516;51.482;7.120;2024-01-27T08:12:23;9.40;;;3.20;;
1054;SDS011;516;51.482;7.120;2024-01-27T08:14:49;6.70;;;2.70;;
1054;SDS011;516;51.482;7.120;2024-01-27T08:17:15;9.17;;;3.17;;
1054;SDS011;516;51.482;7.120;2024-01-27T08:19:40;7.33;;;2.93;;
1054;SDS011;516;51.482;7.120;2024-01-27T08:22:06;9.23;;;2.70;;
1054;SDS011;516;51.482;7.120;2024-01-27T08:24:34;5.10;;;2.67;;
1054;SDS011;516;51.482;7.120;2024-01-27T08:27:00;3.60;;;2.77;;
1054;SDS011;516;51.482;7.120;2024-01-27T08:29:26;7.30;;;2.77;;
1054;SDS011;516;51.482;7.120;2024-01-27T08:31:52;5.00;;;2.83;;
1054;SDS011;516;51.482;7.120;2024-01-27T08:34:17;9.43;;;3.20;;
1054;SDS011;516;51.482;7.120;2024-01-27T08:36:43;6.73;;;3.03;;
1054;SDS011;516;51.482;7.120;2024-01-27T08:39:08;5.90;;;2.83;;
1054;SDS011;516;51.482;7.120;2024-01-27T08:41:34;6.10;;;2.80;;
1054;SDS011;516;51.482;7.120;2024-01-27T08:44:00;8.77;;;4.10;;
1054;SDS011;516;51.482;7.120;2024-01-27T08:46:26;5.70;;;2.93;;
1054;SDS011;516;51.482;7.120;2024-01-27T08:48:52;5.77;;;3.00;;
1054;SDS011;516;51.482;7.120;2024-01-27T08:51:17;4.70;;;2.50;;
1054;SDS011;516;51.482;7.120;2024-01-27T08:53:43;5.57;;;2.70;;
1054;SDS011;516;51.482;7.120;2024-01-27T08:56:14;5.63;;;3.30;;
1054;SDS011;516;51.482;7.120;2024-01-27T08:58:41;5.90;;;2.90;;
1054;SDS011;516;51.482;7.120;2024-01-27T09:01:08;4.07;;;3.50;;
1054;SDS011;516;51.482;7.120;2024-01-27T09:03:35;6.00;;;2.90;;
1054;SDS011;516;51.482;7.120;2024-01-27T09:06:01;5.27;;;2.90;;
1054;SDS011;516;51.482;7.120;2024-01-27T09:08:26;8.20;;;3.30;;
1054;SDS011;516;51.482;7.120;2024-01-27T09:10:52;7.07;;;3.70;;
1054;SDS011;516;51.482;7.120;2024-01-27T09:13:18;3.63;;;3.00;;
1054;SDS011;516;51.482;7.120;2024-01-27T09:15:43;6.17;;;3.80;;
1054;SDS011;516;51.482;7.120;2024-01-27T09:18:09;6.87;;;2.93;;
1054;SDS011;516;51.482;7.120;2024-01-27T09:20:34;5.83;;;3.30;;
1054;SDS011;516;51.482;7.120;2024-01-27T09:23:00;3.63;;;2.50;;
1054;SDS011;516;51.482;7.120;2024-01-27T09:25:26;4.17;;;2.50;;
1054;SDS011;516;51.482;7.120;2024-01-27T09:27:53;10.00;;;3.60;;
1054;SDS011;516;51.482;7.120;2024-01-27T09:30:19;5.03;;;3.30;;
1054;SDS011;516;51.482;7.120;2024-01-27T09:32:45;6.47;;;2.70;;
1054;SDS011;516;51.482;7.120;2024-01-27T09:35:11;5.10;;;3.17;;
1054;SDS011;516;51.482;7.120;2024-01-27T09:37:37;3.40;;;2.40;;
1054;SDS011;516;51.482;7.120;2024-01-27T09:40:02;5.30;;;2.83;;
1054;SDS011;516;51.482;7.120;2024-01-27T09:42:29;5.80;;;3.17;;
1054;SDS011;516;51.482;7.120;2024-01-27T09:44:58;4.40;;;2.03;;
1054;SDS011;516;51.482;7.120;2024-01-27T09:47:24;7.13;;;3.10;;
1054;SDS011;516;51.482;7.120;2024-01-27T09:49:50;3.63;;;2.50;;
1054;SDS011;516;51.482;7.120;2024-01-27T09:52:16;3.50;;;2.90;;
1054;SDS011;516;51.482;7.120;2024-01-27T09:54:42;4.87;;;2.77;;
1054;SDS011;516;51.482;7.120;2024-01-27T09:57:08;4.27;;;2.70;;
1054;SDS011;516;51.482;7.120;2024-01-27T09:59:34;3.97;;;3.20;;
1054;SDS011;516;51.482;7.120;2024-01-27T10:02:01;5.73;;;3.53;;
1054;SDS011;516;51.482;7.120;2024-01-27T10:04:29;3.17;;;2.70;;
1054;SDS011;516;51.482;7.120;2024-01-27T10:06:55;4.50;;;3.10;;
1054;SDS011;516;51.482;7.120;2024-01-27T10:09:23;3.00;;;2.40;;
1054;SDS011;516;51.482;7.120;2024-01-27T10:11:48;4.40;;;2.73;;
1054;SDS011;516;51.482;7.120;2024-01-27T10:14:14;6.87;;;3.37;;
1054;SDS011;516;51.482;7.120;2024-01-27T10:16:44;4.50;;;2.80;;
1054;SDS011;516;51.482;7.120;2024-01-27T10:19:17;3.87;;;2.57;;
1054;SDS011;516;51.482;7.120;2024-01-27T10:21:46;4.07;;;3.00;;
1054;SDS011;516;51.482;7.120;2024-01-27T10:24:13;4.27;;;2.87;;
1054;SDS011;516;51.482;7.120;2024-01-27T10:26:39;4.63;;;2.87;;
1054;SDS011;516;51.482;7.120;2024-01-27T10:29:05;4.27;;;2.77;;
1054;SDS011;516;51.482;7.120;2024-01-27T10:31:33;5.43;;;2.63;;
1054;SDS011;516;51.482;7.120;2024-01-27T10:33:59;4.93;;;2.00;;
1054;SDS011;516;51.482;7.120;2024-01-27T10:36:41;5.37;;;2.67;;
1054;SDS011;516;51.482;7.120;2024-01-27T10:39:42;5.37;;;2.77;;
1054;SDS011;516;51.482;7.120;2024-01-27T10:42:01;4.63;;;2.40;;
1054;SDS011;516;51.482;7.120;2024-01-27T10:44:28;4.20;;;2.90;;
1054;SDS011;516;51.482;7.120;2024-01-27T10:46:55;3.73;;;2.13;;
1054;SDS011;516;51.482;7.120;2024-01-27T10:49:26;11.90;;;3.10;;
1054;SDS011;516;51.482;7.120;2024-01-27T10:51:57;7.43;;;4.00;;
1054;SDS011;516;51.482;7.120;2024-01-27T10:54:27;4.37;;;2.80;;
1054;SDS011;516;51.482;7.120;2024-01-27T10:56:53;2.47;;;2.10;;
1054;SDS011;516;51.482;7.120;2024-01-27T10:59:21;4.67;;;3.07;;
1054;SDS011;516;51.482;7.120;2024-01-27T11:01:50;8.13;;;2.93;;
1054;SDS011;516;51.482;7.120;2024-01-27T11:04:19;5.37;;;2.97;;
1054;SDS011;516;51.482;7.120;2024-01-27T11:06:49;2.53;;;2.30;;
1054;SDS011;516;51.482;7.120;2024-01-27T11:09:15;9.03;;;3.60;;
1054;SDS011;516;51.482;7.120;2024-01-27T11:11:43;5.17;;;2.67;;
1054;SDS011;516;51.482;7.120;2024-01-27T11:14:10;5.43;;;2.90;;
1054;SDS011;516;51.482;7.120;2024-01-27T11:16:37;7.67;;;4.20;;
1054;SDS011;516;51.482;7.120;2024-01-27T11:19:10;7.07;;;2.70;;
1054;SDS011;516;51.482;7.120;2024-01-27T11:21:37;5.40;;;3.33;;
1054;SDS011;516;51.482;7.120;2024-01-27T11:24:13;6.20;;;3.00;;
1054;SDS011;516;51.482;7.120;2024-01-27T11:26:42;4.53;;;2.37;;
1054;SDS011;516;51.482;7.120;2024-01-27T11:29:09;5.13;;;2.43;;
1054;SDS011;516;51.482;7.120;2024-01-27T11:31:43;5.63;;;3.00;;
1054;SDS011;516;51.482;7.120;2024-01-27T11:34:10;4.23;;;2.73;;
1054;SDS011;516;51.482;7.120;2024-01-27T11:36:42;7.27;;;2.17;;
1054;SDS011;516;51.482;7.120;2024-01-27T11:39:22;4.00;;;2.37;;
1054;SDS011;516;51.482;7.120;2024-01-27T11:41:50;6.80;;;2.33;;
1054;SDS011;516;51.482;7.120;2024-01-27T11:44:15;10.40;;;3.87;;
1054;SDS011;516;51.482;7.120;2024-01-27T11:46:43;9.90;;;4.20;;
1054;SDS011;516;51.482;7.120;2024-01-27T11:49:14;12.33;;;4.10;;
1054;SDS011;516;51.482;7.120;2024-01-27T11:51:41;9.50;;;4.50;;
1054;SDS011;516;51.482;7.120;2024-01-27T11:54:07;8.07;;;4.10;;
1054;SDS011;516;51.482;7.120;2024-01-27T11:56:33;6.67;;;2.87;;
1054;SDS011;516;51.482;7.120;2024-01-27T11:58:58;6.87;;;3.30;;
1054;SDS011;516;51.482;7.120;2024-01-27T12:01:24;6.10;;;3.30;;
1054;SDS011;516;51.482;7.120;2024-01-27T12:03:50;4.70;;;2.67;;
1054;SDS011;516;51.482;7.120;2024-01-27T12:06:16;4.20;;;2.47;;
1054;SDS011;516;51.482;7.120;2024-01-27T12:08:42;6.60;;;3.80;;
1054;SDS011;516;51.482;7.120;2024-01-27T12:11:12;8.17;;;3.73;;
1054;SDS011;516;51.482;7.120;2024-01-27T12:13:39;6.73;;;3.37;;
1054;SDS011;516;51.482;7.120;2024-01-27T12:16:05;4.80;;;2.70;;
1054;SDS011;516;51.482;7.120;2024-01-27T12:18:32;6.53;;;3.30;;
1054;SDS011;516;51.482;7.120;2024-01-27T12:20:58;8.80;;;2.80;;
1054;SDS011;516;51.482;7.120;2024-01-27T12:23:23;5.17;;;2.90;;
1054;SDS011;516;51.482;7.120;2024-01-27T12:25:52;7.13;;;4.27;;
1054;SDS011;516;51.482;7.120;2024-01-27T12:28:19;4.57;;;2.67;;
1054;SDS011;516;51.482;7.120;2024-01-27T12:30:45;6.57;;;2.77;;
1054;SDS011;516;51.482;7.120;2024-01-27T12:33:12;4.60;;;2.63;;
1054;SDS011;516;51.482;7.120;2024-01-27T12:35:38;6.50;;;3.23;;
1054;SDS011;516;51.482;7.120;2024-01-27T12:38:05;3.33;;;2.70;;
1054;SDS011;516;51.482;7.120;2024-01-27T12:40:31;5.23;;;2.63;;
1054;SDS011;516;51.482;7.120;2024-01-27T12:42:57;4.00;;;2.80;;
1054;SDS011;516;51.482;7.120;2024-01-27T12:45:23;4.13;;;2.70;;
1054;SDS011;516;51.482;7.120;2024-01-27T12:47:48;5.40;;;3.33;;
1054;SDS011;516;51.482;7.120;2024-01-27T12:50:15;13.93;;;5.30;;
1054;SDS011;516;51.482;7.120;2024-01-27T12:52:41;12.00;;;4.57;;
1054;SDS011;516;51.482;7.120;2024-01-27T12:55:07;14.23;;;4.07;;
1054;SDS011;516;51.482;7.120;2024-01-27T12:57:33;12.03;;;4.43;;
1054;SDS011;516;51.482;7.120;2024-01-27T12:59:59;10.87;;;3.80;;
1054;SDS011;516;51.482;7.120;2024-01-27T13:02:25;10.73;;;4.30;;
1054;SDS011;516;51.482;7.120;2024-01-27T13:04:51;11.07;;;3.63;;
1054;SDS011;516;51.482;7.120;2024-01-27T13:07:16;5.13;;;3.03;;
1054;SDS011;516;51.482;7.120;2024-01-27T13:09:42;12.37;;;3.80;;
1054;SDS011;516;51.482;7.120;2024-01-27T13:12:08;10.87;;;3.80;;
1054;SDS011;516;51.482;7.120;2024-01-27T13:14:33;7.47;;;3.23;;
1054;SDS011;516;51.482;7.120;2024-01-27T13:16:59;5.07;;;3.00;;
1054;SDS011;516;51.482;7.120;2024-01-27T13:19:26;6.43;;;2.93;;
1054;SDS011;516;51.482;7.120;2024-01-27T13:21:52;4.27;;;2.63;;
1054;SDS011;516;51.482;7.120;2024-01-27T13:24:18;6.17;;;3.40;;
1054;SDS011;516;51.482;7.120;2024-01-27T13:26:45;7.07;;;3.17;;
1054;SDS011;516;51.482;7.120;2024-01-27T13:29:11;6.13;;;3.27;;
1054;SDS011;516;51.482;7.120;2024-01-27T13:31:37;7.50;;;3.17;;
1054;SDS011;516;51.482;7.120;2024-01-27T13:34:03;9.83;;;3.47;;
1054;SDS011;516;51.482;7.120;2024-01-27T13:36:29;6.87;;;3.30;;
1054;SDS011;516;51.482;7.120;2024-01-27T13:38:55;7.80;;;6.53;;
1054;SDS011;516;51.482;7.120;2024-01-27T13:41:20;12.60;;;7.23;;
1054;SDS011;516;51.482;7.120;2024-01-27T13:43:46;20.50;;;8.37;;
1054;SDS011;516;51.482;7.120;2024-01-27T13:46:12;7.43;;;5.70;;
1054;SDS011;516;51.482;7.120;2024-01-27T13:48:38;7.30;;;6.33;;
1054;SDS011;516;51.482;7.120;2024-01-27T13:51:04;7.07;;;5.30;;
1054;SDS011;516;51.482;7.120;2024-01-27T13:53:30;5.17;;;4.67;;
1054;SDS011;516;51.482;7.120;2024-01-27T13:55:55;8.47;;;5.90;;
1054;SDS011;516;51.482;7.120;2024-01-27T13:58:21;5.57;;;4.77;;
1054;SDS011;516;51.482;7.120;2024-01-27T14:00:47;5.33;;;4.03;;
1054;SDS011;516;51.482;7.120;2024-01-27T14:03:13;5.80;;;4.70;;
1054;SDS011;516;51.482;7.120;2024-01-27T14:05:39;9.80;;;4.37;;
1054;SDS011;516;51.482;7.120;2024-01-27T14:08:06;6.53;;;4.47;;
1054;SDS011;516;51.482;7.120;2024-01-27T14:10:33;5.27;;;4.03;;
1054;SDS011;516;51.482;7.120;2024-01-27T14:13:00;4.83;;;4.33;;
1054;SDS011;516;51.482;7.120;2024-01-27T14:15:29;9.23;;;3.67;;
1054;SDS011;516;51.482;7.120;2024-01-27T14:17:55;7.37;;;4.40;;
1054;SDS011;516;51.482;7.120;2024-01-27T14:20:21;7.20;;;3.40;;
1054;SDS011;516;51.482;7.120;2024-01-27T14:22:47;7.90;;;3.93;;
1054;SDS011;516;51.482;7.120;2024-01-27T14:25:12;9.03;;;6.10;;
1054;SDS011;516;51.482;7.120;2024-01-27T14:27:39;7.33;;;4.67;;
1054;SDS011;516;51.482;7.120;2024-01-27T14:30:05;12.00;;;4.43;;
1054;SDS011;516;51.482;7.120;2024-01-27T14:32:31;10.40;;;4.87;;
1054;SDS011;516;51.482;7.120;2024-01-27T14:34:57;5.60;;;3.57;;
1054;SDS011;516;51.482;7.120;2024-01-27T14:37:23;12.23;;;3.80;;
1054;SDS011;516;51.482;7.120;2024-01-27T14:39:48;5.83;;;3.30;;
1054;SDS011;516;51.482;7.120;2024-01-27T14:42:14;7.80;;;4.13;;
1054;SDS011;516;51.482;7.120;2024-01-27T14:44:44;5.13;;;3.07;;
1054;SDS011;516;51.482;7.120;2024-01-27T14:47:14;3.93;;;3.50;;
1054;SDS011;516;51.482;7.120;2024-01-27T14:49:40;5.73;;;3.37;;
1054;SDS011;516;51.482;7.120;2024-01-27T14:52:08;5.83;;;3.63;;
1054;SDS011;516;51.482;7.120;2024-01-27T14:54:36;7.30;;;3.57;;
1054;SDS011;516;51.482;7.120;2024-01-27T14:57:02;6.80;;;3.30;;
1054;SDS011;516;51.482;7.120;2024-01-27T14:59:28;5.00;;;3.63;;
1054;SDS011;516;51.482;7.120;2024-01-27T15:01:55;4.17;;;3.33;;
1054;SDS011;516;51.482;7.120;2024-01-27T15:04:22;5.57;;;3.20;;
1054;SDS011;516;51.482;7.120;2024-01-27T15:06:54;4.93;;;3.43;;
1054;SDS011;516;51.482;7.120;2024-01-27T15:09:21;8.10;;;4.40;;
1054;SDS011;516;51.482;7.120;2024-01-27T15:11:48;7.30;;;3.83;;
1054;SDS011;516;51.482;7.120;2024-01-27T15:14:14;9.03;;;3.90;;
1054;SDS011;516;51.482;7.120;2024-01-27T15:16:40;5.63;;;3.23;;
1054;SDS011;516;51.482;7.120;2024-01-27T15:19:06;4.53;;;2.30;;
1054;SDS011;516;51.482;7.120;2024-01-27T15:21:32;4.03;;;2.80;;
1054;SDS011;516;51.482;7.120;2024-01-27T15:23:58;5.83;;;3.20;;